Time;durP1;ratioP1;P1;durP2;ratioP2;P2;SDS_P1;SDS_P2;PMS_P1;PMS_P2;Temp;Humidity;BMP_temperature;BMP_pressure;BME280_temperature;BME280_humidity;BME280_pressure;Samples;Min_cycle;Max_cycle;Signal;HPM_P1;HPM_P2
2021/04/29 00:01:21;;;;;;;12.43;9.47;;;;;;;;;;4819193;28;20194;-78
2021/04/29 00:03:44;;;;;;;13.33;9.53;;;2.80;99.90;;;;;;4818686;28;20665;-75
2021/04/29 00:06:07;;;;;;;16.00;9.93;;;;;;;;;;4819454;28;20187;-75
2021/04/29 00:08:29;;;;;;;14.00;9.73;;;;;;;;;;4815016;28;20191;-76
2021/04/29 00:10:51;;;;;;;13.80;10.67;;;;;;;;;;4820032;28;20238;-76
2021/04/29 00:13:13;;;;;;;13.53;10.80;;;;;;;;;;4817060;28;20195;-76
2021/04/29 00:15:36;;;;;;;12.97;10.17;;;;;;;;;;4798415;28;20192;-76
2021/04/29 00:17:58;;;;;;;13.67;10.57;;;2.50;1.00;;;;;;4799977;28;20263;-75
2021/04/29 00:20:23;;;;;;;13.93;10.57;;;2.50;1.00;;;;;;4800743;28;20216;-75
2021/04/29 00:22:46;;;;;;;15.57;11.80;;;;;;;;;;4811055;28;20593;-77
2021/04/29 00:25:08;;;;;;;13.80;10.63;;;2.60;1.00;;;;;;4848660;28;20201;-76
2021/04/29 00:27:30;;;;;;;12.93;11.23;;;;;;;;;;4820297;28;20191;-75
2021/04/29 00:29:53;;;;;;;15.10;11.60;;;;;;;;;;4834898;28;20249;-77
2021/04/29 00:32:15;;;;;;;14.03;11.30;;;;;;;;;;4817548;28;20317;-75
2021/04/29 00:34:37;;;;;;;13.67;11.10;;;;;;;;;;4814083;28;20247;-77
2021/04/29 00:37:00;;;;;;;13.13;10.27;;;2.20;99.40;;;;;;4809760;28;20552;-76
2021/04/29 00:39:23;;;;;;;16.03;10.93;;;2.10;87.80;;;;;;4819735;28;20600;-76
2021/04/29 00:41:46;;;;;;;14.00;10.27;;;;;;;;;;4819112;28;20227;-75
2021/04/29 00:44:08;;;;;;;15.73;11.03;;;2.20;99.90;;;;;;4800164;28;20279;-75
2021/04/29 00:46:30;;;;;;;16.47;11.67;;;2.10;1.00;;;;;;4818678;28;20199;-75
2021/04/29 00:48:52;;;;;;;12.70;10.70;;;2.10;1.00;;;;;;4818148;28;20731;-76
2021/04/29 00:51:17;;;;;;;12.67;10.37;;;2.20;99.90;;;;;;4818082;28;20211;-75
2021/04/29 00:53:42;;;;;;;14.07;11.50;;;2.10;99.90;;;;;;4818561;28;20255;-76
2021/04/29 00:56:05;;;;;;;16.20;11.30;;;2.20;1.00;;;;;;4833956;28;20261;-75
2021/04/29 00:58:27;;;;;;;13.57;10.50;;;;;;;;;;4816668;28;20265;-74
2021/04/29 01:00:49;;;;;;;17.53;11.37;;;;;;;;;;4817166;28;20192;-75
2021/04/29 01:03:17;;;;;;;17.73;10.73;;;1.90;1.00;;;;;;4817315;28;20587;-76
2021/04/29 01:05:47;;;;;;;19.50;10.70;;;1.90;99.90;;;;;;4833361;28;20195;-76
2021/04/29 01:08:13;;;;;;;21.40;10.90;;;1.80;99.90;;;;;;4816341;28;20195;-75
2021/04/29 01:10:40;;;;;;;15.60;10.70;;;2.60;1.00;;;;;;4817488;28;20195;-77
2021/04/29 01:13:07;;;;;;;14.00;9.80;;;1.80;99.90;;;;;;4816633;28;20206;-74
2021/04/29 01:15:29;;;;;;;19.53;10.70;;;;;;;;;;4815867;28;20335;-76
2021/04/29 01:17:51;;;;;;;19.47;10.83;;;1.80;1.00;;;;;;4818613;28;20293;-74
2021/04/29 01:20:19;;;;;;;18.43;10.47;;;2.40;99.90;;;;;;4816090;28;20622;-76
2021/04/29 01:22:44;;;;;;;22.13;11.40;;;1.70;99.90;;;;;;4800478;28;20200;-76
2021/04/29 01:25:11;;;;;;;18.07;10.77;;;1.60;1.00;;;;;;4814700;28;20777;-75
2021/04/29 01:27:35;;;;;;;14.77;9.97;;;1.50;1.00;;;;;;4813762;28;20220;-75
2021/04/29 01:29:58;;;;;;;19.40;10.43;;;1.60;99.90;;;;;;4817699;28;20545;-76
2021/04/29 01:32:20;;;;;;;16.37;9.73;;;1.50;1.00;;;;;;4817555;28;20211;-75
2021/04/29 01:34:43;;;;;;;16.87;9.50;;;1.50;99.90;;;;;;4832312;28;20210;-76
2021/04/29 01:37:06;;;;;;;15.13;9.30;;;1.50;1.00;;;;;;4816441;28;20622;-75
2021/04/29 01:39:29;;;;;;;14.40;9.90;;;;;;;;;;4817428;28;20614;-76
2021/04/29 01:41:53;;;;;;;16.13;9.67;;;1.50;1.00;;;;;;4816423;28;20230;-76
2021/04/29 01:44:19;;;;;;;16.57;9.97;;;1.60;1.00;;;;;;4816404;28;20277;-76
2021/04/29 01:46:42;;;;;;;15.97;10.07;;;1.40;1.00;;;;;;4817058;28;20226;-76
2021/04/29 01:49:06;;;;;;;19.07;10.53;;;1.30;1.00;;;;;;4816903;28;20555;-76
2021/04/29 01:51:29;;;;;;;19.80;9.73;;;1.50;1.00;;;;;;4815923;28;20238;-75
2021/04/29 01:53:51;;;;;;;21.43;10.93;;;;;;;;;;4815959;28;20236;-75
2021/04/29 01:56:15;;;;;;;18.53;10.57;;;1.40;1.00;;;;;;4833460;28;20272;-76
2021/04/29 01:58:37;;;;;;;13.47;9.00;;;1.50;99.90;;;;;;4813751;28;20618;-76
2021/04/29 02:01:01;;;;;;;14.50;9.37;;;1.40;99.90;;;;;;4803118;28;20183;-76
2021/04/29 02:03:23;;;;;;;14.63;9.27;;;1.20;93.40;;;;;;4817031;28;20277;-76
2021/04/29 02:05:45;;;;;;;14.47;8.97;;;;;;;;;;4818212;28;20183;-75
2021/04/29 02:08:07;;;;;;;20.97;10.30;;;1.10;99.90;;;;;;4817401;28;20254;-75
2021/04/29 02:10:30;;;;;;;15.47;9.03;;;;;;;;;;4818464;28;20234;-75
2021/04/29 02:12:56;;;;;;;16.47;9.40;;;1.10;99.90;;;;;;4817176;28;20191;-75
2021/04/29 02:15:19;;;;;;;17.70;9.47;;;1.10;99.90;;;;;;4818510;28;20183;-74
2021/04/29 02:17:47;;;;;;;17.00;9.00;;;1.20;1.00;;;;;;4818066;28;20211;-75
2021/04/29 02:20:13;;;;;;;18.67;9.73;;;-0.50;1.00;;;;;;4815314;28;20218;-76
2021/04/29 02:22:38;;;;;;;25.03;11.43;;;1.10;1.00;;;;;;4817647;28;20192;-75
2021/04/29 02:25:01;;;;;;;15.47;9.27;;;1.20;1.00;;;;;;4817620;28;20222;-76
2021/04/29 02:27:24;;;;;;;16.70;9.63;;;1.10;99.90;;;;;;4818097;28;20223;-75
2021/04/29 02:29:46;;;;;;;17.87;9.07;;;1.00;21.40;;;;;;4803287;28;20250;-76
2021/04/29 02:32:08;;;;;;;15.33;8.77;;;1.10;29.60;;;;;;4799768;28;20215;-75
2021/04/29 02:34:32;;;;;;;17.77;9.30;;;1.10;1.00;;;;;;4807997;28;20212;-76
2021/04/29 02:36:54;;;;;;;18.30;10.13;;;1.00;1.00;;;;;;4818065;28;20196;-76
2021/04/29 02:39:17;;;;;;;14.40;9.50;;;1.10;99.90;;;;;;4820047;28;20187;-77
2021/04/29 02:41:40;;;;;;;13.40;9.27;;;1.10;99.90;;;;;;4819196;28;20227;-75
2021/04/29 02:44:03;;;;;;;14.87;8.57;;;1.10;99.90;;;;;;4819338;28;20223;-75
2021/04/29 02:46:25;;;;;;;15.70;9.00;;;1.10;99.90;;;;;;4835978;28;20253;-75
2021/04/29 02:48:47;;;;;;;15.73;10.33;;;1.30;99.90;;;;;;4842349;28;20186;-75
2021/04/29 02:51:11;;;;;;;18.97;10.47;;;1.20;99.90;;;;;;4801171;28;20207;-75
2021/04/29 02:53:34;;;;;;;16.07;10.03;;;1.10;99.90;;;;;;4811213;28;20246;-75
2021/04/29 02:55:57;;;;;;;18.77;9.77;;;1.20;99.90;;;;;;4820958;28;20195;-75
2021/04/29 02:58:19;;;;;;;18.53;10.67;;;;;;;;;;4821557;28;20253;-76
2021/04/29 03:00:42;;;;;;;33.73;13.77;;;1.20;99.90;;;;;;4818456;28;20348;-75
2021/04/29 03:03:07;;;;;;;18.33;10.50;;;1.20;99.90;;;;;;4818024;28;20195;-75
2021/04/29 03:05:29;;;;;;;19.20;11.13;;;1.30;99.90;;;;;;4821320;28;20191;-75
2021/04/29 03:07:53;;;;;;;21.33;11.57;;;0.60;99.90;;;;;;4802202;28;20239;-75
2021/04/29 03:10:16;;;;;;;19.70;11.37;;;;;;;;;;4821435;28;20187;-75
2021/04/29 03:12:38;;;;;;;24.87;11.97;;;1.60;99.90;;;;;;4818841;28;20648;-76
2021/04/29 03:15:00;;;;;;;20.90;10.83;;;1.20;99.90;;;;;;4820685;28;20638;-75
2021/04/29 03:17:23;;;;;;;19.70;10.50;;;;;;;;;;4821843;28;20198;-75
2021/04/29 03:19:45;;;;;;;17.47;10.50;;;1.40;99.90;;;;;;4820689;28;20263;-75
2021/04/29 03:22:07;;;;;;;18.90;10.70;;;1.50;99.90;;;;;;4854332;28;20240;-75
2021/04/29 03:24:30;;;;;;;15.00;10.30;;;1.50;99.90;;;;;;4838934;28;20222;-75
2021/04/29 03:26:52;;;;;;;22.43;12.27;;;1.60;99.90;;;;;;4822480;28;20191;-75
2021/04/29 03:29:14;;;;;;;21.47;13.33;;;;;;;;;;4819073;28;20294;-75
2021/04/29 03:31:36;;;;;;;19.50;11.73;;;;;;;;;;4819687;28;20282;-75
2021/04/29 03:33:58;;;;;;;19.97;11.20;;;1.80;56.20;;;;;;4817440;28;20219;-74
2021/04/29 03:36:21;;;;;;;17.73;10.60;;;;;;;;;;4809171;28;20183;-75
2021/04/29 03:38:43;;;;;;;17.47;10.67;;;;;;;;;;4820771;28;20246;-75
2021/04/29 03:41:06;;;;;;;21.33;12.77;;;1.70;99.90;;;;;;4819478;28;20219;-75
2021/04/29 03:43:28;;;;;;;21.83;12.80;;;1.70;99.90;;;;;;4820077;28;20207;-75
2021/04/29 03:45:50;;;;;;;19.40;11.60;;;2.20;99.90;;;;;;4819812;28;20184;-75
2021/04/29 03:48:13;;;;;;;21.07;11.90;;;1.70;99.90;;;;;;4818947;28;20254;-75
2021/04/29 03:50:35;;;;;;;22.17;12.03;;;2.00;99.90;;;;;;4818854;28;20218;-74
2021/04/29 03:52:57;;;;;;;14.77;9.20;;;1.70;99.90;;;;;;4817973;28;20642;-75
2021/04/29 03:55:20;;;;;;;20.40;10.00;;;1.80;99.90;;;;;;4841468;28;20237;-74
2021/04/29 03:57:44;;;;;;;19.37;10.03;;;1.80;99.90;;;;;;4808293;28;20207;-76
2021/04/29 04:00:08;;;;;;;21.33;10.73;;;1.80;1.00;;;;;;4802351;28;20191;-75
2021/04/29 04:02:30;;;;;;;20.17;10.43;;;;;;;;;;4816874;28;20607;-76
2021/04/29 04:04:52;;;;;;;16.43;9.17;;;2.20;99.90;;;;;;4820277;28;20211;-75
2021/04/29 04:07:16;;;;;;;19.50;10.23;;;;;;;;;;4818679;28;20233;-76
2021/04/29 04:09:38;;;;;;;14.50;9.43;;;2.10;99.90;;;;;;4818841;28;20207;-75
2021/04/29 04:12:00;;;;;;;17.47;9.77;;;2.10;99.90;;;;;;4819672;28;20199;-75
2021/04/29 04:14:43;;;;;;;14.30;8.97;;;2.30;99.90;;;;;;4819652;28;20560;-77
2021/04/29 04:17:26;;;;;;;19.43;9.80;;;;;;;;;;4818372;28;20751;-75
2021/04/29 04:20:09;;;;;;;18.50;10.07;;;2.60;1.00;;;;;;4818561;28;20183;-75
2021/04/29 04:22:51;;;;;;;18.57;10.27;;;2.50;1.00;;;;;;4818640;28;20184;-75
2021/04/29 04:25:33;;;;;;;18.20;10.13;;;2.80;1.00;;;;;;4819025;28;20615;-76
2021/04/29 04:28:15;;;;;;;20.00;10.77;;;2.90;1.00;;;;;;4817919;28;20192;-75
2021/04/29 04:30:58;;;;;;;15.10;9.63;;;3.00;1.00;;;;;;4810111;28;20184;-75
2021/04/29 04:33:40;;;;;;;16.37;10.33;;;;;;;;;;4817376;28;20221;-76
2021/04/29 04:36:23;;;;;;;11.87;8.87;;;;;;;;;;4820105;28;20198;-75
2021/04/29 04:39:05;;;;;;;16.53;9.57;;;2.70;1.00;;;;;;4817315;28;20172;-75
2021/04/29 04:41:47;;;;;;;15.97;9.67;;;3.30;1.00;;;;;;4819426;28;20227;-75
2021/04/29 04:44:09;;;;;;;19.73;11.20;;;3.50;1.00;;;;;;4801124;28;20412;-76
2021/04/29 04:46:32;;;;;;;17.33;9.43;;;3.60;99.90;;;;;;4850223;28;20558;-75
2021/04/29 04:48:55;;;;;;;16.50;9.63;;;3.70;1.00;;;;;;4834014;28;20203;-75
2021/04/29 04:51:17;;;;;;;21.07;10.23;;;3.40;99.90;;;;;;4817893;28;20303;-76
2021/04/29 04:53:39;;;;;;;15.77;9.60;;;3.80;99.90;;;;;;4817885;28;20289;-76
2021/04/29 04:56:01;;;;;;;20.53;10.23;;;4.30;99.90;;;;;;4818287;28;20191;-76
2021/04/29 04:58:23;;;;;;;16.67;10.13;;;4.30;1.00;;;;;;4819222;28;20187;-76
2021/04/29 05:00:48;;;;;;;22.27;10.83;;;4.50;1.00;;;;;;4815571;28;20899;-75
2021/04/29 05:03:12;;;;;;;18.70;9.77;;;4.80;99.90;;;;;;4818246;28;20630;-75
2021/04/29 05:05:34;;;;;;;12.20;7.90;;;5.10;99.90;;;;;;4834043;28;20226;-75
2021/04/29 05:07:58;;;;;;;12.27;7.33;;;5.00;1.00;;;;;;4816682;28;20254;-75
2021/04/29 05:10:21;;;;;;;14.30;7.50;;;;;;;;;;4817047;28;20195;-75
2021/04/29 05:12:43;;;;;;;19.90;8.47;;;5.90;1.00;;;;;;4818320;28;20662;-76
2021/04/29 05:15:07;;;;;;;16.23;6.63;;;6.10;99.90;;;;;;4817862;28;20729;-75
2021/04/29 05:17:29;;;;;;;13.43;6.70;;;5.60;1.00;;;;;;4817322;28;20191;-75
2021/04/29 05:19:52;;;;;;;20.13;7.23;;;6.50;1.00;;;;;;4817626;28;20188;-75
2021/04/29 05:22:15;;;;;;;12.13;6.50;;;6.60;16.90;;;;;;4818569;28;20552;-76
2021/04/29 05:24:38;;;;;;;10.43;5.67;;;;;;;;;;4816457;28;20623;-75
2021/04/29 05:27:00;;;;;;;9.73;5.83;;;;;;;;;;4818548;28;20249;-76
2021/04/29 05:29:22;;;;;;;9.10;5.17;;;;;;;;;;4817691;28;20611;-76
2021/04/29 05:31:44;;;;;;;6.63;5.20;;;;;;;;;;4818401;28;20195;-76
2021/04/29 05:34:07;;;;;;;12.37;5.70;;;;;;;;;;4814658;28;20274;-76
2021/04/29 05:36:30;;;;;;;7.53;4.90;;;7.90;1.00;;;;;;4808650;28;20191;-75
2021/04/29 05:38:53;;;;;;;12.13;5.53;;;;;;;;;;4816429;28;20215;-76
2021/04/29 05:41:15;;;;;;;14.00;5.53;;;8.60;99.90;;;;;;4816347;28;20223;-75
2021/04/29 05:43:37;;;;;;;10.13;4.60;;;8.80;99.90;;;;;;4818032;28;20736;-75
2021/04/29 05:45:59;;;;;;;11.70;4.90;;;;;;;;;;4800455;28;20291;-74
2021/04/29 05:48:21;;;;;;;12.50;4.70;;;8.80;99.90;;;;;;4815139;28;20250;-74
2021/04/29 05:50:44;;;;;;;6.10;3.53;;;8.60;1.00;;;;;;4816611;28;20203;-75
2021/04/29 05:53:07;;;;;;;8.47;4.03;;;9.00;1.00;;;;;;4817106;28;20194;-74
2021/04/29 05:55:29;;;;;;;7.53;3.77;;;8.90;99.90;;;;;;4818601;28;20731;-74
2021/04/29 05:57:54;;;;;;;9.10;4.10;;;9.40;1.00;;;;;;4816837;28;20199;-73
2021/04/29 06:00:18;;;;;;;14.63;5.60;;;9.40;1.00;;;;;;4832458;28;20610;-74
2021/04/29 06:02:40;;;;;;;20.47;6.30;;;9.80;1.00;;;;;;4815707;28;20716;-75
2021/04/29 06:05:03;;;;;;;5.70;3.03;;;9.70;1.00;;;;;;4817450;28;20297;-77
2021/04/29 06:07:25;;;;;;;7.53;3.67;;;10.10;99.90;;;;;;4818303;28;20270;-75
2021/04/29 06:09:48;;;;;;;5.63;3.20;;;10.00;1.00;;;;;;4818584;28;20234;-75
2021/04/29 06:12:10;;;;;;;10.17;4.47;;;10.20;99.90;;;;;;4816311;28;20602;-74
2021/04/29 06:14:32;;;;;;;5.97;3.17;;;10.40;99.90;;;;;;4818339;28;20230;-75
2021/04/29 06:16:54;;;;;;;7.50;3.60;;;;;;;;;;4822421;28;20241;-75
2021/04/29 06:19:16;;;;;;;9.77;3.63;;;;;;;;;;4820520;28;20557;-75
2021/04/29 06:21:38;;;;;;;6.27;3.10;;;;;;;;;;4820901;28;20250;-75
2021/04/29 06:24:01;;;;;;;10.40;3.80;;;;;;;;;;4819620;28;20249;-75
2021/04/29 06:26:24;;;;;;;4.30;2.73;;;11.40;99.90;;;;;;4822488;28;20195;-75
2021/04/29 06:28:46;;;;;;;8.67;4.03;;;;;;;;;;4819580;28;20195;-76
2021/04/29 06:31:09;;;;;;;9.40;4.00;;;;;;;;;;4820197;28;20242;-75
2021/04/29 06:33:31;;;;;;;7.67;3.33;;;;;;;;;;4818814;28;20254;-75
2021/04/29 06:35:54;;;;;;;10.83;3.80;;;12.30;99.90;;;;;;4848664;28;20236;-74
2021/04/29 06:38:17;;;;;;;14.13;4.00;;;;;;;;;;4820529;28;20206;-75
2021/04/29 06:40:39;;;;;;;6.40;2.37;;;;;;;;;;4822216;28;20270;-74
2021/04/29 06:43:02;;;;;;;7.10;2.70;;;12.70;99.90;;;;;;4820895;28;20191;-74
2021/04/29 06:45:24;;;;;;;7.43;2.60;;;12.80;99.90;;;;;;4834266;28;20730;-75
2021/04/29 06:47:47;;;;;;;5.47;2.17;;;;;;;;;;4821181;28;20219;-76
2021/04/29 06:50:11;;;;;;;10.80;2.93;;;13.10;1.00;;;;;;4819637;28;20631;-74
2021/04/29 06:52:33;;;;;;;16.33;4.33;;;;;;;;;;4835215;28;20268;-74
2021/04/29 06:54:55;;;;;;;11.87;3.27;;;;;;;;;;4819065;28;20235;-74
2021/04/29 06:57:17;;;;;;;9.77;2.70;;;;;;;;;;4802371;28;20192;-75
2021/04/29 06:59:41;;;;;;;5.20;1.77;;;13.60;99.90;;;;;;4822448;28;20189;-74
2021/04/29 07:02:03;;;;;;;7.47;2.17;;;13.80;99.90;;;;;;4800772;28;20874;-75
2021/04/29 07:04:26;;;;;;;5.10;1.70;;;;;;;;;;4801182;28;20308;-74
2021/04/29 07:06:48;;;;;;;12.00;2.73;;;;;;;;;;4801006;28;20192;-74
2021/04/29 07:09:10;;;;;;;11.77;2.77;;;;;;;;;;4811160;28;20307;-75
2021/04/29 07:11:32;;;;;;;5.60;1.53;;;;;;;;;;4820939;28;20249;-75
2021/04/29 07:13:55;;;;;;;11.37;2.60;;;;;;;;;;4820223;28;20203;-76
2021/04/29 07:16:18;;;;;;;15.83;3.33;;;15.30;99.90;;;;;;4820164;28;20210;-76
2021/04/29 07:18:40;;;;;;;9.97;2.47;;;15.50;99.90;;;;;;4819247;28;20728;-77
2021/04/29 07:21:02;;;;;;;6.70;1.77;;;;;;;;;;4820734;28;20191;-75
2021/04/29 07:23:24;;;;;;;7.00;1.87;;;;;;;;;;4818352;28;20211;-75
2021/04/29 07:25:46;;;;;;;8.10;2.03;;;;;;;;;;4819157;28;20580;-75
2021/04/29 07:28:10;;;;;;;11.93;2.70;;;;;;;;;;4832866;28;20183;-74
2021/04/29 07:30:33;;;;;;;8.67;2.07;;;;;;;;;;4809950;28;20832;-75
2021/04/29 07:32:55;;;;;;;7.07;1.70;;;15.70;99.90;;;;;;4801611;28;20866;-74
2021/04/29 07:35:18;;;;;;;10.87;2.40;;;;;;;;;;4805191;28;20322;-74
2021/04/29 07:37:40;;;;;;;9.67;2.20;;;;;;;;;;4810487;28;20191;-75
2021/04/29 07:40:02;;;;;;;6.97;1.60;;;;;;;;;;4817966;28;20211;-75
2021/04/29 07:42:24;;;;;;;6.63;1.70;;;16.80;1.00;;;;;;4819282;28;20227;-74
2021/04/29 07:44:47;;;;;;;5.83;1.50;;;;;;;;;;4802088;28;20220;-74
2021/04/29 07:47:09;;;;;;;12.03;2.50;;;;;;;;;;4820288;28;20215;-75
2021/04/29 07:49:32;;;;;;;9.83;2.20;;;17.60;99.90;;;;;;4817552;28;20211;-74
2021/04/29 07:51:55;;;;;;;11.03;2.33;;;;;;;;;;4820233;28;20199;-74
2021/04/29 07:54:17;;;;;;;11.60;2.33;;;;;;;;;;4839367;28;20225;-74
2021/04/29 07:56:39;;;;;;;7.50;1.77;;;;;;;;;;4809944;28;20301;-75
2021/04/29 07:59:01;;;;;;;12.83;2.63;;;;;;;;;;4817181;28;20211;-74
2021/04/29 08:01:23;;;;;;;2.80;0.80;;;;;;;;;;4815598;28;20207;-74
2021/04/29 08:03:46;;;;;;;5.07;1.33;;;;;;;;;;4818127;28;20686;-75
2021/04/29 08:06:09;;;;;;;10.87;2.10;;;18.40;99.90;;;;;;4819787;28;20219;-74
2021/04/29 08:08:31;;;;;;;6.23;1.37;;;;;;;;;;4820309;28;20187;-75
2021/04/29 08:10:53;;;;;;;10.50;2.07;;;;;;;;;;4801146;28;20680;-75
2021/04/29 08:13:15;;;;;;;8.13;1.70;;;;;;;;;;4814122;28;20270;-76
2021/04/29 08:15:38;;;;;;;6.93;1.50;;;;;;;;;;4815024;28;20723;-77
2021/04/29 08:18:00;;;;;;;6.50;1.40;;;;;;;;;;4819769;28;20588;-76
2021/04/29 08:20:22;;;;;;;6.87;1.50;;;;;;;;;;4819910;28;20191;-75
2021/04/29 08:22:46;;;;;;;16.30;3.07;;;19.00;1.00;;;;;;4815589;28;20238;-74
2021/04/29 08:25:09;;;;;;;17.53;3.13;;;19.00;99.90;;;;;;4819162;28;20258;-75
2021/04/29 08:27:32;;;;;;;6.50;1.27;;;;;;;;;;4831430;28;20802;-76
2021/04/29 08:29:54;;;;;;;11.87;2.00;;;;;;;;;;4819707;28;20539;-77
2021/04/29 08:32:17;;;;;;;19.40;2.87;;;20.10;99.90;;;;;;4816404;28;20819;-76
2021/04/29 08:34:39;;;;;;;9.77;1.50;;;19.60;99.90;;;;;;4818840;28;20295;-76
2021/04/29 08:37:02;;;;;;;15.43;2.17;;;;;;;;;;4821226;28;20716;-75
2021/04/29 08:39:26;;;;;;;16.90;2.33;;;20.00;99.90;;;;;;4836152;28;20199;-74
2021/04/29 08:41:48;;;;;;;13.70;1.87;;;;;;;;;;4817853;28;20286;-74
2021/04/29 08:44:10;;;;;;;30.77;4.07;;;;;;;;;;4815582;28;20232;-75
2021/04/29 08:46:34;;;;;;;10.53;1.60;;;;;;;;;;4800841;28;20211;-75
2021/04/29 08:48:57;;;;;;;19.17;2.63;;;20.00;99.90;;;;;;4819527;28;20192;-74
2021/04/29 08:51:19;;;;;;;31.57;4.17;;;;;;;;;;4818785;28;20196;-75
2021/04/29 08:53:43;;;;;;;23.77;3.43;;;;;;;;;;4815948;28;20258;-76
2021/04/29 08:56:06;;;;;;;29.43;23.30;;;20.80;99.90;;;;;;4818920;28;20191;-76
2021/04/29 08:58:29;;;;;;;67.07;61.47;;;;;;;;;;4829035;28;20682;-74
2021/04/29 09:01:01;;;;;;;120.27;108.90;;;21.60;99.90;;;;;;4820243;28;20328;-73
2021/04/29 09:03:29;;;;;;;289.73;181.10;;;22.20;99.90;;;;;;4815522;28;20195;-74
2021/04/29 09:05:57;;;;;;;156.17;140.83;;;21.20;99.90;;;;;;4816338;28;20217;-75
2021/04/29 09:08:19;;;;;;;264.60;171.17;;;;;;;;;;4802239;28;20205;-76
2021/04/29 09:10:42;;;;;;;178.50;159.40;;;23.50;99.90;;;;;;4812394;28;20213;-74
2021/04/29 09:13:15;;;;;;;234.70;181.33;;;23.80;99.90;;;;;;4817905;28;20246;-75
2021/04/29 09:15:39;;;;;;;277.17;189.80;;;;;;;;;;4817558;28;20204;-76
2021/04/29 09:18:05;;;;;;;255.10;197.13;;;25.40;99.90;;;;;;4818213;28;20190;-75
2021/04/29 09:20:28;;;;;;;280.30;203.33;;;;;;;;;;4831836;28;20213;-77
2021/04/29 09:22:58;;;;;;;297.33;237.67;;;27.70;99.90;;;;;;4814314;28;20347;-77
2021/04/29 09:25:21;;;;;;;251.93;209.87;;;27.90;99.90;;;;;;4800199;28;20212;-77
2021/04/29 09:27:52;;;;;;;231.53;210.23;;;28.30;99.90;;;;;;4832736;28;20202;-76
2021/04/29 09:30:17;;;;;;;228.10;208.07;;;29.10;99.90;;;;;;4810034;28;20195;-76
2021/04/29 09:32:39;;;;;;;225.57;203.47;;;;;;;;;;4818584;28;20198;-78
2021/04/29 09:35:05;;;;;;;151.10;139.67;;;27.20;99.90;;;;;;4817204;28;20266;-77
2021/04/29 09:37:33;;;;;;;110.97;102.97;;;26.50;99.90;;;;;;4817125;28;20251;-76
2021/04/29 09:39:55;;;;;;;107.97;99.47;;;;;;;;;;4809782;28;20220;-77
2021/04/29 09:42:28;;;;;;;99.13;91.53;;;26.90;99.90;;;;;;4817607;28;20294;-76
2021/04/29 09:44:50;;;;;;;158.17;146.57;;;;;;;;;;4833829;28;20231;-78
2021/04/29 09:47:13;;;;;;;290.17;261.03;;;31.80;99.90;;;;;;4821248;28;20214;-76
2021/04/29 09:49:38;;;;;;;310.53;281.63;;;32.70;99.90;;;;;;4824890;28;20237;-76
2021/04/29 09:52:01;;;;;;;310.13;283.73;;;33.60;99.90;;;;;;4807742;28;20278;-77
2021/04/29 09:54:27;;;;;;;353.63;317.90;;;33.90;99.90;;;;;;4814743;28;20253;-77
2021/04/29 09:56:57;;;;;;;440.67;328.67;;;33.10;99.90;;;;;;4817110;28;20191;-77
2021/04/29 09:59:20;;;;;;;378.27;304.37;;;;;;;;;;4818389;28;20190;-78
2021/04/29 10:01:42;;;;;;;359.80;300.57;;;;;;;;;;4817139;28;20569;-82
2021/04/29 10:04:06;;;;;;;371.33;307.10;;;28.60;99.90;;;;;;4800290;28;20209;-80
2021/04/29 10:06:29;;;;;;;291.97;262.23;;;;;;;;;;4833511;28;20205;-77
2021/04/29 10:08:51;;;;;;;299.23;262.93;;;;;;;;;;4817991;28;20249;-78
2021/04/29 10:11:13;;;;;;;284.30;241.23;;;;;;;;;;4816554;28;20262;-75
2021/04/29 10:13:38;;;;;;;256.17;229.20;;;25.50;99.90;;;;;;4832980;28;20564;-77
2021/04/29 10:16:01;;;;;;;255.53;228.13;;;25.20;99.90;;;;;;4818422;28;20217;-80
2021/04/29 10:18:24;;;;;;;228.83;203.83;;;;;;;;;;4817477;28;20188;-79
2021/04/29 10:20:49;;;;;;;215.57;194.73;;;25.90;99.90;;;;;;4832633;28;20235;-76
2021/04/29 10:23:17;;;;;;;203.23;184.87;;;26.20;99.90;;;;;;4814753;28;20189;-81
2021/04/29 10:25:39;;;;;;;185.53;169.43;;;;;;;;;;4814869;28;20196;-78
2021/04/29 10:28:03;;;;;;;192.93;175.70;;;26.10;99.90;;;;;;4799816;28;20239;-76
2021/04/29 10:30:34;;;;;;;144.93;133.63;;;26.80;99.90;;;;;;4802599;28;20264;-77
2021/04/29 10:32:56;;;;;;;211.13;191.80;;;;;;;;;;4816630;28;20198;-78
2021/04/29 10:35:21;;;;;;;229.43;208.93;;;29.00;99.90;;;;;;4816190;28;20283;-81
2021/04/29 10:37:55;;;;;;;250.33;226.27;;;29.20;99.90;;;;;;4815268;28;20199;-84
2021/04/29 10:40:18;;;;;;;239.83;216.23;;;;;;;;;;4815193;28;20199;-81
2021/04/29 10:42:47;;;;;;;196.03;178.60;;;28.90;99.90;;;;;;4781182;28;20238;-79
2021/04/29 10:45:11;;;;;;;184.97;170.63;;;29.30;99.90;;;;;;4830843;28;20200;-79
2021/04/29 10:47:33;;;;;;;210.10;194.13;;;;;;;;;;4811170;28;20192;-78
2021/04/29 10:50:07;;;;;;;256.80;234.73;;;31.30;99.90;;;;;;4818119;28;20189;-79
2021/04/29 10:52:31;;;;;;;280.53;254.83;;;;;;;;;;4816403;28;20208;-77
2021/04/29 10:54:54;;;;;;;263.00;239.30;;;29.30;99.90;;;;;;4817319;28;20658;-82
2021/04/29 10:57:16;;;;;;;245.60;224.67;;;;;;;;;;4832867;28;20257;-80
2021/04/29 10:59:41;;;;;;;188.00;173.73;;;27.80;99.90;;;;;;4817640;28;20199;-79
2021/04/29 11:02:03;;;;;;;151.90;141.20;;;;;;;;;;4819171;28;20192;-78
2021/04/29 11:04:26;;;;;;;158.77;148.57;;;;;;;;;;4818666;28;20227;-77
2021/04/29 11:06:49;;;;;;;197.63;182.40;;;29.00;99.90;;;;;;4819865;28;20242;-79
2021/04/29 11:09:19;;;;;;;186.67;172.20;;;29.60;99.90;;;;;;4803370;28;20540;-83
2021/04/29 11:11:42;;;;;;;187.53;172.67;;;29.70;99.90;;;;;;4819445;28;20213;-75
2021/04/29 11:14:07;;;;;;;159.40;148.10;;;29.20;99.90;;;;;;4834480;28;20244;-79
2021/04/29 11:16:30;;;;;;;156.93;146.93;;;;;;;;;;4820520;28;20232;-82
2021/04/29 11:18:52;;;;;;;147.47;137.53;;;;;;;;;;4820132;28;20786;-81
2021/04/29 11:21:25;;;;;;;119.20;110.30;;;29.80;99.90;;;;;;4819959;28;20218;-78
2021/04/29 11:23:48;;;;;;;119.00;111.73;;;;;;;;;;4819618;28;20242;-77
2021/04/29 11:26:11;;;;;;;164.20;151.53;;;32.50;99.90;;;;;;4818253;28;20210;-77
2021/04/29 11:28:34;;;;;;;277.30;256.77;;;32.80;99.90;;;;;;4802759;28;20613;-76
2021/04/29 11:30:57;;;;;;;294.87;269.97;;;;;;;;;;4820763;28;20248;-81
2021/04/29 11:33:19;;;;;;;275.23;253.43;;;;;;;;;;4819345;28;20214;-80
2021/04/29 11:35:42;;;;;;;270.35;249.90;;;;;;;;;;4808101;28;20219;-82
2021/04/29 11:38:07;;;;;;;266.77;245.70;;;31.30;99.90;;;;;;4802076;28;20196;-77
2021/04/29 11:40:32;;;;;;;286.50;260.83;;;29.90;99.90;;;;;;4810194;28;20207;-78
2021/04/29 11:42:56;;;;;;;278.63;255.13;;;28.80;99.90;;;;;;4815501;28;20259;-78
2021/04/29 11:45:20;;;;;;;269.63;245.67;;;28.40;99.90;;;;;;4818519;28;20259;-78
2021/04/29 11:47:54;;;;;;;280.87;253.77;;;28.80;99.90;;;;;;4818510;28;20214;-80
2021/04/29 11:50:21;;;;;;;278.17;249.57;;;29.50;99.90;;;;;;4818828;28;20251;-78
2021/04/29 11:52:43;;;;;;;291.33;262.37;;;;;;;;;;4819946;28;20228;-80
2021/04/29 11:55:05;;;;;;;268.03;246.90;;;;;;;;;;4819810;28;20187;-78
2021/04/29 11:57:28;;;;;;;247.47;227.53;;;;;;;;;;4820066;28;20190;-76
2021/04/29 11:59:51;;;;;;;263.07;241.60;;;29.90;99.90;;;;;;4818877;28;20192;-80
2021/04/29 12:02:14;;;;;;;255.87;234.30;;;29.90;99.90;;;;;;4817621;28;20671;-76
2021/04/29 12:04:36;;;;;;;247.37;225.40;;;;;;;;;;4799739;28;20216;-77
2021/04/29 12:07:00;;;;;;;253.33;230.37;;;29.60;99.90;;;;;;4801098;28;20195;-75
2021/04/29 12:09:24;;;;;;;262.43;238.40;;;30.10;99.90;;;;;;4818833;28;20257;-77
2021/04/29 12:11:46;;;;;;;272.90;250.10;;;;;;;;;;4800936;28;20195;-78
2021/04/29 12:14:08;;;;;;;268.70;246.20;;;;;;;;;;4816898;28;20604;-77
2021/04/29 12:16:32;;;;;;;292.70;264.47;;;;;;;;;;4800816;28;20548;-82
2021/04/29 12:18:56;;;;;;;329.83;294.03;;;31.10;99.90;;;;;;4810256;28;20202;-77
2021/04/29 12:21:21;;;;;;;336.70;294.67;;;31.00;99.90;;;;;;4819225;28;20185;-76
2021/04/29 12:23:43;;;;;;;296.17;268.30;;;;;;;;;;4817735;28;20768;-78
2021/04/29 12:26:07;;;;;;;299.77;271.33;;;32.70;99.90;;;;;;4818654;28;20586;-77
2021/04/29 12:28:31;;;;;;;334.40;300.87;;;33.50;99.90;;;;;;4817199;28;20241;-76
2021/04/29 12:30:53;;;;;;;339.80;304.93;;;;;;;;;;4849999;28;20205;-75
2021/04/29 12:33:17;;;;;;;354.25;318.40;;;36.20;99.90;;;;;;4834021;28;20236;-77
2021/04/29 12:35:40;;;;;;;356.02;322.95;;;35.70;99.90;;;;;;4842445;28;20218;-77
2021/04/29 12:38:02;;;;;;;354.10;319.45;;;;;;;;;;4843370;28;20241;-77
2021/04/29 12:40:29;;;;;;;355.88;320.27;;;35.60;99.90;;;;;;4818180;28;20187;-77
2021/04/29 12:42:51;;;;;;;363.05;326.40;;;35.90;99.90;;;;;;4811498;28;20218;-76
2021/04/29 12:45:14;;;;;;;387.02;346.30;;;36.70;99.90;;;;;;4817090;28;20744;-78
2021/04/29 12:47:37;;;;;;;405.02;361.38;;;;;;;;;;4820118;28;20191;-78
2021/04/29 12:50:03;;;;;;;390.50;350.48;;;37.90;99.90;;;;;;4819638;28;20254;-77
2021/04/29 12:52:26;;;;;;;432.25;384.13;;;38.60;99.90;;;;;;4818167;28;20198;-78
2021/04/29 12:54:50;;;;;;;419.45;373.50;;;;;;;;;;4819303;28;20593;-80